Time;durP1;ratioP1;P1;durP2;ratioP2;P2;SDS_P1;SDS_P2;PMS_P1;PMS_P2;Temp;Humidity;BMP_temperature;BMP_pressure;BME280_temperature;BME280_humidity;BME280_pressure;Samples;Min_cycle;Max_cycle;Signal;HPM_P1;HPM_P2
2022/05/16 00:00:12;;;;;;;7.47;2.85;;;19.80;88.20;;;;;;5011086;28;20037;-57
2022/05/16 00:02:38;;;;;;;9.20;2.90;;;19.70;88.20;;;;;;5011185;28;20036;-56
2022/05/16 00:05:05;;;;;;;8.40;3.38;;;19.80;88.30;;;;;;5011305;28;20018;-56
2022/05/16 00:07:31;;;;;;;10.57;3.30;;;19.80;89.20;;;;;;5009691;28;20030;-57
2022/05/16 00:09:56;;;;;;;7.05;3.58;;;19.90;88.70;;;;;;5010827;28;20124;-57
2022/05/16 00:12:22;;;;;;;6.47;3.28;;;20.10;88.50;;;;;;5011369;28;20026;-56
2022/05/16 00:14:47;;;;;;;5.15;3.60;;;20.00;88.80;;;;;;5011054;28;20030;-56
2022/05/16 00:17:14;;;;;;;10.00;3.38;;;19.90;90.20;;;;;;5011158;28;20026;-56
2022/05/16 00:19:40;;;;;;;9.82;3.03;;;19.80;89.90;;;;;;5010768;28;20111;-56
2022/05/16 00:22:07;;;;;;;7.35;3.50;;;19.80;89.60;;;;;;5011578;28;20111;-56
2022/05/16 00:24:32;;;;;;;7.82;3.50;;;19.80;89.90;;;;;;5010990;28;20080;-56
2022/05/16 00:26:58;;;;;;;5.53;2.90;;;19.80;90.50;;;;;;5010572;28;20046;-56
2022/05/16 00:29:25;;;;;;;8.07;3.30;;;19.60;91.10;;;;;;5011219;28;20473;-57
2022/05/16 00:31:53;;;;;;;6.22;3.55;;;19.50;91.40;;;;;;5010841;28;20034;-56
2022/05/16 00:34:20;;;;;;;12.63;3.63;;;19.30;91.90;;;;;;5010827;28;20168;-56
2022/05/16 00:36:47;;;;;;;7.78;3.28;;;19.20;92.40;;;;;;5010657;28;20037;-56
2022/05/16 00:39:14;;;;;;;7.53;3.33;;;19.10;93.20;;;;;;5010776;28;20519;-56
2022/05/16 00:41:41;;;;;;;6.55;3.15;;;19.00;93.60;;;;;;5010792;28;20061;-56
2022/05/16 00:44:07;;;;;;;7.70;3.15;;;18.80;94.20;;;;;;5010142;28;20160;-56
2022/05/16 00:46:33;;;;;;;6.00;3.20;;;18.70;94.60;;;;;;5010318;28;20109;-56
2022/05/16 00:49:07;;;;;;;8.13;2.92;;;18.90;94.40;;;;;;5010502;28;20160;-56
2022/05/16 00:51:40;;;;;;;6.50;3.25;;;18.90;94.30;;;;;;5010695;28;20026;-56
2022/05/16 00:54:17;;;;;;;;;;;18.90;94.60;;;;;;5009411;28;20023;-56
2022/05/16 00:56:45;;;;;;;7.75;3.50;;;18.90;94.50;;;;;;5010615;28;19905;-56
2022/05/16 00:59:11;;;;;;;5.30;3.10;;;18.90;94.30;;;;;;5010280;28;20041;-55
2022/05/16 01:07:06;;;;;;;4.50;2.70;;;19.00;94.70;;;;;;5014417;28;20068;-55
2022/05/16 01:09:32;;;;;;;9.43;3.22;;;19.00;94.90;;;;;;5014121;28;20034;-56
2022/05/16 01:11:59;;;;;;;6.40;3.13;;;19.00;94.90;;;;;;5014179;28;20083;-56
2022/05/16 01:14:45;;;;;;;6.80;2.72;;;19.00;95.00;;;;;;5013896;28;20025;-55
2022/05/16 01:17:11;;;;;;;5.45;3.00;;;19.20;94.80;;;;;;5013998;28;20096;-56
2022/05/16 01:19:37;;;;;;;6.75;2.92;;;19.20;94.70;;;;;;5013480;28;20076;-56
2022/05/16 01:22:35;;;;;;;5.93;2.42;;;19.10;95.10;;;;;;5013445;28;20025;-56
2022/05/16 01:25:11;;;;;;;6.13;2.90;;;19.00;95.30;;;;;;5027387;28;20053;-56
2022/05/16 01:27:48;;;;;;;7.00;2.90;;;19.00;95.60;;;;;;5013534;28;20034;-56
2022/05/16 01:30:19;;;;;;;9.35;2.97;;;19.00;95.70;;;;;;5013280;28;20022;-56
2022/05/16 01:32:45;;;;;;;7.18;2.75;;;19.00;95.70;;;;;;5013880;28;20028;-56
2022/05/16 01:35:11;;;;;;;7.70;3.55;;;19.00;95.90;;;;;;5013644;28;20033;-55
2022/05/16 01:40:23;;;;;;;7.88;2.80;;;18.80;96.50;;;;;;5013161;28;20045;-55
2022/05/16 01:42:49;;;;;;;5.38;3.05;;;18.70;96.80;;;;;;5013582;28;20069;-56
2022/05/16 01:45:15;;;;;;;6.18;3.10;;;18.70;97.30;;;;;;5013050;28;20054;-56
2022/05/16 01:47:40;;;;;;;6.70;2.88;;;18.60;97.80;;;;;;5012949;28;20030;-56
2022/05/16 01:50:06;;;;;;;7.32;3.30;;;18.60;97.90;;;;;;5012742;28;20387;-56
2022/05/16 01:52:32;;;;;;;6.53;3.17;;;18.50;98.10;;;;;;5013244;28;20088;-55
2022/05/16 01:54:59;;;;;;;5.57;2.80;;;18.50;98.30;;;;;;5012568;28;20033;-56
2022/05/16 01:57:27;;;;;;;9.82;2.90;;;18.50;98.20;;;;;;5011259;28;20030;-56
2022/05/16 01:59:53;;;;;;;4.50;3.10;;;18.60;98.40;;;;;;5012398;28;20036;-56
2022/05/16 02:02:19;;;;;;;8.13;3.33;;;18.60;98.20;;;;;;5012926;28;20218;-55
2022/05/16 02:04:44;;;;;;;6.90;2.92;;;18.70;98.40;;;;;;5012642;28;20026;-56
2022/05/16 02:07:10;;;;;;;7.50;2.85;;;18.60;98.60;;;;;;5012247;28;20612;-55
2022/05/16 02:09:35;;;;;;;8.02;3.00;;;18.60;98.80;;;;;;5012447;28;20434;-56
2022/05/16 02:12:01;;;;;;;8.27;3.30;;;18.60;98.80;;;;;;5012615;28;20515;-56
2022/05/16 02:14:30;;;;;;;8.45;3.15;;;18.60;99.00;;;;;;5012114;28;20526;-56
2022/05/16 02:16:55;;;;;;;9.90;3.25;;;18.70;99.10;;;;;;5011381;28;20484;-56
2022/05/16 02:19:21;;;;;;;6.57;2.83;;;18.60;99.40;;;;;;5012514;28;20030;-56
2022/05/16 02:24:39;;;;;;;4.85;3.03;;;18.50;99.80;;;;;;5011957;28;20033;-56
2022/05/16 02:27:16;;;;;;;5.65;2.92;;;18.50;99.90;;;;;;5012360;28;20042;-56
2022/05/16 02:29:42;;;;;;;11.55;3.50;;;18.60;99.90;;;;;;5012623;28;20395;-56
2022/05/16 02:32:08;;;;;;;7.47;3.10;;;18.60;99.90;;;;;;5012890;28;20033;-56
2022/05/16 02:34:34;;;;;;;9.25;2.85;;;18.80;99.90;;;;;;5012759;28;20030;-56
2022/05/16 02:37:00;;;;;;;11.10;3.25;;;19.00;99.90;;;;;;5012341;28;20033;-57
2022/05/16 02:39:26;;;;;;;9.25;3.13;;;19.00;99.50;;;;;;5012221;28;20039;-56
2022/05/16 02:41:52;;;;;;;4.75;3.20;;;18.90;99.90;;;;;;5012386;28;20364;-57
2022/05/16 02:44:17;;;;;;;5.13;3.10;;;18.80;99.90;;;;;;5012242;28;20077;-56
2022/05/16 02:46:44;;;;;;;11.88;3.38;;;18.70;99.90;;;;;;5012262;28;20060;-56
2022/05/16 02:49:10;;;;;;;7.88;3.05;;;18.70;99.90;;;;;;5011917;28;20029;-56
2022/05/16 02:51:36;;;;;;;10.23;3.13;;;19.00;99.90;;;;;;5012181;28;20034;-57
2022/05/16 02:54:02;;;;;;;9.20;3.53;;;19.00;99.90;;;;;;5012226;28;20037;-56
2022/05/16 02:56:28;;;;;;;9.75;3.55;;;19.00;99.90;;;;;;5011984;28;20519;-56
2022/05/16 02:58:54;;;;;;;5.10;3.00;;;19.00;99.90;;;;;;5011495;28;20720;-56
2022/05/16 03:01:20;;;;;;;7.93;3.00;;;18.90;99.90;;;;;;5011514;28;20026;-57
2022/05/16 03:03:46;;;;;;;6.95;3.28;;;18.70;99.90;;;;;;5011866;28;20018;-56
2022/05/16 03:06:12;;;;;;;7.80;3.15;;;18.60;99.90;;;;;;5011841;28;20518;-57
2022/05/16 03:08:38;;;;;;;8.45;3.08;;;18.80;99.90;;;;;;5011998;28;20041;-56
2022/05/16 03:11:05;;;;;;;11.18;3.90;;;18.80;99.90;;;;;;5012005;28;20026;-57
2022/05/16 03:13:31;;;;;;;9.88;3.10;;;18.90;99.90;;;;;;5011690;28;20078;-57
2022/05/16 03:15:58;;;;;;;8.52;2.80;;;19.00;99.90;;;;;;5011682;28;20136;-57
2022/05/16 03:18:24;;;;;;;7.85;2.92;;;18.90;99.90;;;;;;5011613;28;20025;-56
2022/05/16 03:20:52;;;;;;;7.82;3.28;;;18.70;99.90;;;;;;5011943;28;20183;-56
2022/05/16 03:23:18;;;;;;;9.10;3.40;;;18.90;99.90;;;;;;5011343;28;20022;-56
2022/05/16 03:25:44;;;;;;;10.25;3.33;;;18.80;99.90;;;;;;5011297;28;20133;-57
2022/05/16 03:28:11;;;;;;;5.40;3.35;;;18.70;99.90;;;;;;5011549;28;20117;-56
2022/05/16 03:30:38;;;;;;;10.90;3.70;;;18.80;99.90;;;;;;5012000;28;20087;-56
2022/05/16 03:33:05;;;;;;;11.15;3.75;;;18.60;99.90;;;;;;5011519;28;20036;-57
2022/05/16 03:35:31;;;;;;;7.30;3.33;;;18.70;99.90;;;;;;5011602;28;20085;-56
2022/05/16 03:37:57;;;;;;;9.23;3.28;;;18.60;99.90;;;;;;5009922;28;20030;-56
2022/05/16 03:43:07;;;;;;;8.52;3.55;;;18.50;99.90;;;;;;5011636;28;20037;-56
2022/05/16 03:45:33;;;;;;;12.98;3.85;;;18.70;99.90;;;;;;5011513;28;20030;-56
2022/05/16 03:47:58;;;;;;;7.18;3.65;;;18.70;99.90;;;;;;5010928;28;20030;-56
2022/05/16 03:50:26;;;;;;;7.47;3.50;;;18.50;99.90;;;;;;5011093;28;20475;-56
2022/05/16 03:52:52;;;;;;;9.13;3.63;;;18.50;99.90;;;;;;5011350;28;20296;-55
2022/05/16 03:55:18;;;;;;;7.40;4.00;;;18.50;99.90;;;;;;5011299;28;20046;-56
2022/05/16 03:57:44;;;;;;;12.70;3.40;;;18.50;99.90;;;;;;5010798;28;20068;-56
2022/05/16 04:00:13;;;;;;;7.97;3.85;;;18.20;99.90;;;;;;5010784;28;20040;-56
2022/05/16 04:02:40;;;;;;;8.98;3.70;;;18.30;99.90;;;;;;5010986;28;20022;-57
2022/05/16 04:05:07;;;;;;;10.18;3.60;;;18.40;99.90;;;;;;5010636;28;20033;-57
2022/05/16 04:07:36;;;;;;;9.82;3.75;;;18.30;99.90;;;;;;5011019;28;20026;-56
2022/05/16 04:10:01;;;;;;;5.60;3.38;;;18.20;99.90;;;;;;5010840;28;20030;-55
2022/05/16 04:12:27;;;;;;;7.45;3.80;;;18.10;99.90;;;;;;5011365;28;20815;-56
2022/05/16 04:14:53;;;;;;;6.80;3.78;;;18.10;99.90;;;;;;5010569;28;20014;-55
2022/05/16 04:17:19;;;;;;;6.88;3.70;;;18.00;99.90;;;;;;5010423;28;20288;-56
2022/05/16 04:19:45;;;;;;;9.30;3.40;;;18.10;99.90;;;;;;5010643;28;20026;-56
2022/05/16 04:22:12;;;;;;;8.85;3.38;;;18.10;99.90;;;;;;5010993;28;20014;-55
2022/05/16 04:24:38;;;;;;;6.65;3.50;;;18.20;99.90;;;;;;5010603;28;20455;-56
2022/05/16 04:27:05;;;;;;;7.85;3.63;;;18.30;99.90;;;;;;5010939;28;20046;-56
2022/05/16 04:29:30;;;;;;;6.88;3.80;;;18.30;99.90;;;;;;5010951;28;20025;-56
2022/05/16 04:31:57;;;;;;;5.65;3.20;;;18.30;99.90;;;;;;5010696;28;20032;-56
2022/05/16 04:34:22;;;;;;;5.95;3.50;;;18.20;99.90;;;;;;5010474;28;20026;-55
2022/05/16 04:36:48;;;;;;;6.60;3.30;;;18.20;99.90;;;;;;5010709;28;20548;-56
2022/05/16 04:39:13;;;;;;;9.18;3.75;;;18.20;99.90;;;;;;5012517;28;20550;-56
2022/05/16 04:44:24;;;;;;;8.45;3.00;;;18.30;99.90;;;;;;5014331;28;20107;-55
2022/05/16 04:46:49;;;;;;;6.03;2.95;;;18.30;99.90;;;;;;5014204;28;20065;-56
2022/05/16 04:49:15;;;;;;;10.10;3.22;;;18.30;99.90;;;;;;5013954;28;20486;-56
2022/05/16 04:51:40;;;;;;;8.10;3.60;;;18.30;99.90;;;;;;5014287;28;20038;-55
2022/05/16 04:54:06;;;;;;;6.47;2.92;;;18.20;99.90;;;;;;5012832;28;20053;-55
2022/05/16 04:56:32;;;;;;;6.60;3.28;;;18.30;99.90;;;;;;5014229;28;20088;-56
2022/05/16 04:58:58;;;;;;;6.05;3.25;;;18.30;99.90;;;;;;5014211;28;20018;-56
2022/05/16 05:01:24;;;;;;;7.32;3.00;;;18.30;99.90;;;;;;5014314;28;20022;-57
2022/05/16 05:03:50;;;;;;;7.25;3.17;;;18.40;99.90;;;;;;5014111;28;20018;-56
2022/05/16 05:06:16;;;;;;;6.57;3.38;;;18.40;99.90;;;;;;5013968;28;20080;-55
2022/05/16 05:08:42;;;;;;;5.88;2.70;;;18.50;99.90;;;;;;5013398;28;20113;-55
2022/05/16 05:16:37;;;;;;;5.22;2.35;;;18.60;99.90;;;;;;5013321;28;20028;-56
2022/05/16 05:19:03;;;;;;;5.07;2.65;;;18.70;99.90;;;;;;5013216;28;20245;-56
2022/05/16 05:21:32;;;;;;;7.22;2.63;;;18.70;99.90;;;;;;5013291;28;20030;-56
2022/05/16 05:23:57;;;;;;;7.13;2.65;;;18.70;99.90;;;;;;5013275;28;20080;-56
2022/05/16 05:26:23;;;;;;;8.27;2.50;;;18.70;99.90;;;;;;5013277;28;20034;-56
2022/05/16 05:28:49;;;;;;;15.75;2.70;;;18.70;99.90;;;;;;5013055;28;20049;-56
2022/05/16 05:31:18;;;;;;;6.88;2.20;;;18.70;99.90;;;;;;5013825;28;20037;-56
2022/05/16 05:33:44;;;;;;;7.03;2.50;;;18.70;99.90;;;;;;5011701;28;20034;-56
2022/05/16 05:36:10;;;;;;;5.38;2.55;;;18.70;99.90;;;;;;5013081;28;20041;-55
2022/05/16 05:38:36;;;;;;;6.63;2.75;;;18.70;99.90;;;;;;5013040;28;20072;-56
2022/05/16 05:41:07;;;;;;;9.13;2.58;;;18.70;99.90;;;;;;5013008;28;20026;-57
2022/05/16 05:43:32;;;;;;;8.48;2.97;;;18.70;99.90;;;;;;5011649;28;20372;-56
2022/05/16 05:45:58;;;;;;;7.65;2.42;;;18.90;99.90;;;;;;5013133;28;20436;-56
2022/05/16 05:48:28;;;;;;;7.28;2.72;;;19.10;99.90;;;;;;5011271;28;20026;-56
2022/05/16 05:50:53;;;;;;;11.13;2.25;;;19.10;99.90;;;;;;5011305;28;20403;-56
2022/05/16 05:53:19;;;;;;;9.48;2.20;;;19.30;99.90;;;;;;5036117;28;20021;-56
2022/05/16 05:55:47;;;;;;;5.80;2.55;;;19.30;99.90;;;;;;5036539;28;20516;-56
2022/05/16 05:58:14;;;;;;;5.60;2.08;;;19.50;99.90;;;;;;5015714;28;20021;-56
2022/05/16 06:00:40;;;;;;;6.47;2.53;;;19.50;99.90;;;;;;5024814;28;20515;-56
2022/05/16 06:03:06;;;;;;;4.38;2.45;;;19.60;99.90;;;;;;5031837;28;20025;-55
2022/05/16 06:05:32;;;;;;;9.27;2.60;;;19.70;99.90;;;;;;5026392;28;20038;-55
2022/05/16 06:07:58;;;;;;;3.50;2.17;;;19.70;99.90;;;;;;5015892;28;20048;-56
2022/05/16 06:10:24;;;;;;;9.65;2.67;;;19.80;99.90;;;;;;5019821;28;20029;-55
2022/05/16 06:12:50;;;;;;;5.13;2.20;;;20.00;99.90;;;;;;5019149;28;20036;-55
2022/05/16 06:15:16;;;;;;;5.15;2.25;;;20.10;99.90;;;;;;5024899;28;20033;-56
2022/05/16 06:17:43;;;;;;;7.13;2.40;;;20.20;99.90;;;;;;5019428;28;20026;-56
2022/05/16 06:20:10;;;;;;;7.03;2.40;;;20.20;99.90;;;;;;5018465;28;20034;-56
2022/05/16 06:22:37;;;;;;;5.70;2.40;;;20.20;99.90;;;;;;5019597;28;20033;-55
2022/05/16 06:27:50;;;;;;;5.18;2.30;;;20.30;99.90;;;;;;5004238;28;20060;-56
2022/05/16 06:30:19;;;;;;;8.50;2.42;;;20.40;99.90;;;;;;5003994;28;20033;-56
2022/05/16 06:32:45;;;;;;;4.53;2.28;;;20.50;99.90;;;;;;5009365;28;20458;-55
2022/05/16 06:35:10;;;;;;;7.95;2.17;;;20.60;99.90;;;;;;5008946;28;20462;-55
2022/05/16 06:37:36;;;;;;;6.05;2.33;;;20.70;99.90;;;;;;5009443;28;20127;-56
2022/05/16 06:40:02;;;;;;;4.80;2.20;;;20.70;99.90;;;;;;5004994;28;20042;-56
2022/05/16 06:42:28;;;;;;;8.10;2.75;;;20.70;99.90;;;;;;5004986;28;20068;-56
2022/05/16 06:44:53;;;;;;;7.10;2.65;;;20.80;99.90;;;;;;5013214;28;20322;-56
2022/05/16 06:47:19;;;;;;;11.50;2.17;;;20.80;99.90;;;;;;5003665;28;20036;-55
2022/05/16 06:49:45;;;;;;;6.18;2.67;;;21.00;99.90;;;;;;5012281;28;20026;-55
2022/05/16 06:52:10;;;;;;;4.80;2.10;;;21.80;99.90;;;;;;5016848;28;20245;-57
2022/05/16 06:54:36;;;;;;;4.25;2.30;;;22.10;99.90;;;;;;5016348;28;20343;-56
2022/05/16 06:57:02;;;;;;;5.80;2.50;;;22.40;99.90;;;;;;5014762;28;20104;-56
2022/05/16 06:59:27;;;;;;;6.22;2.75;;;22.40;99.90;;;;;;5017184;28;20034;-56
2022/05/16 07:01:53;;;;;;;5.10;2.15;;;22.70;99.90;;;;;;5016978;28;20665;-57
2022/05/16 07:04:19;;;;;;;4.10;2.00;;;23.00;99.90;;;;;;5012207;28;20029;-56
2022/05/16 07:06:44;;;;;;;7.13;2.40;;;22.80;99.90;;;;;;5021002;28;20036;-56
2022/05/16 07:09:10;;;;;;;7.32;2.63;;;22.50;99.90;;;;;;5014600;28;20452;-56
2022/05/16 07:11:36;;;;;;;5.10;2.25;;;22.00;99.90;;;;;;5016629;28;20630;-56
2022/05/16 07:14:01;;;;;;;12.02;2.50;;;22.10;99.90;;;;;;5019150;28;20045;-57
2022/05/16 07:16:27;;;;;;;6.13;2.63;;;22.50;99.90;;;;;;5020161;28;20119;-57
2022/05/16 07:18:53;;;;;;;5.90;2.70;;;23.10;99.90;;;;;;5009243;28;20685;-56
2022/05/16 07:21:18;;;;;;;10.02;2.53;;;23.30;99.90;;;;;;5010370;28;20125;-57
2022/05/16 07:23:45;;;;;;;5.20;2.28;;;23.30;99.90;;;;;;5009048;28;20044;-56
2022/05/16 07:28:55;;;;;;;6.40;2.70;;;23.60;99.90;;;;;;4999555;28;20041;-57
2022/05/16 07:31:21;;;;;;;8.50;2.60;;;23.80;99.90;;;;;;5012100;28;20038;-57
2022/05/16 07:33:47;;;;;;;5.15;2.85;;;23.50;99.90;;;;;;5011943;28;20856;-57
2022/05/16 07:36:12;;;;;;;6.00;2.90;;;22.70;99.90;;;;;;5008153;28;20477;-57
2022/05/16 07:38:38;;;;;;;6.82;2.70;;;22.30;99.90;;;;;;5014701;28;20044;-57
2022/05/16 07:41:05;;;;;;;6.00;3.22;;;22.00;99.90;;;;;;5009085;28;21881;-57
2022/05/16 07:43:30;;;;;;;6.22;3.10;;;21.60;99.90;;;;;;5012787;28;20025;-57
2022/05/16 07:45:56;;;;;;;5.65;3.22;;;21.60;99.90;;;;;;5009369;28;20030;-56
2022/05/16 07:48:22;;;;;;;6.90;2.95;;;21.90;99.90;;;;;;5005646;28;20034;-57
2022/05/16 07:50:48;;;;;;;9.63;3.58;;;22.50;99.90;;;;;;5008719;28;20120;-57
2022/05/16 07:53:15;;;;;;;7.15;2.83;;;23.30;99.90;;;;;;5013662;28;20060;-57
2022/05/16 07:55:49;;;;;;;8.15;2.85;;;23.70;99.90;;;;;;5011671;28;20040;-57
2022/05/16 07:58:14;;;;;;;8.05;3.20;;;23.70;99.90;;;;;;5011502;28;20037;-57
2022/05/16 08:00:41;;;;;;;6.05;3.53;;;23.00;99.90;;;;;;4975467;22;20111;-56
2022/05/16 08:03:12;;;;;;;7.90;3.15;;;23.00;99.90;;;;;;4967068;28;20037;-57
2022/05/16 08:05:38;;;;;;;5.45;3.05;;;23.00;99.90;;;;;;4981412;23;20054;-84
2022/05/16 08:10:48;;;;;;;9.18;4.20;;;22.10;99.90;;;;;;5006161;28;20092;-85
2022/05/16 08:13:27;;;;;;;7.43;3.88;;;22.00;99.90;;;;;;5036253;23;20068;-53
2022/05/16 08:21:03;;;;;;;8.32;4.38;;;21.80;99.90;;;;;;5046800;28;20131;-56
2022/05/16 08:23:30;;;;;;;12.35;4.80;;;21.70;99.90;;;;;;5060229;28;20047;-56
2022/05/16 08:25:59;;;;;;;18.63;5.05;;;21.90;99.90;;;;;;5054089;28;20021;-56
2022/05/16 08:28:25;;;;;;;10.70;4.50;;;22.10;99.90;;;;;;5050887;28;20082;-56
2022/05/16 08:30:51;;;;;;;6.93;4.50;;;22.00;99.90;;;;;;5048686;28;20016;-56
2022/05/16 08:33:17;;;;;;;9.10;4.45;;;22.00;99.90;;;;;;5044552;28;20116;-56
2022/05/16 08:35:42;;;;;;;6.93;4.78;;;22.00;99.90;;;;;;5048461;28;20043;-56
2022/05/16 08:40:56;;;;;;;9.13;4.53;;;22.10;99.90;;;;;;5051833;28;20048;-56
2022/05/16 08:43:46;;;;;;;10.82;5.00;;;22.00;99.90;;;;;;5048691;28;20428;-56
2022/05/16 08:46:36;;;;;;;6.40;4.30;;;22.00;99.90;;;;;;5043375;28;20151;-55
2022/05/16 08:49:24;;;;;;;7.93;5.00;;;21.90;99.90;;;;;;5051532;28;20033;-56
2022/05/16 08:51:56;;;;;;;9.10;5.68;;;21.70;99.90;;;;;;5052065;28;20028;-56
2022/05/16 08:54:44;;;;;;;9.45;5.28;;;21.40;99.90;;;;;;5054629;28;20037;-56
2022/05/16 08:57:15;;;;;;;12.80;5.82;;;21.30;99.90;;;;;;5052885;28;20033;-56
2022/05/16 08:59:44;;;;;;;11.75;6.10;;;21.40;99.90;;;;;;5053622;28;20227;-56
2022/05/16 09:02:20;;;;;;;11.20;6.18;;;21.30;99.90;;;;;;5049167;28;20104;-56
2022/05/16 09:05:05;;;;;;;12.55;6.15;;;21.30;99.90;;;;;;5053508;28;20024;-56
2022/05/16 09:07:48;;;;;;;9.95;6.55;;;21.00;99.90;;;;;;5063537;28;20033;-56
2022/05/16 09:10:20;;;;;;;11.45;5.82;;;21.20;99.90;;;;;;5037191;28;20090;-56
2022/05/16 09:13:04;;;;;;;8.13;5.95;;;21.30;99.90;;;;;;5062272;28;20040;-56
2022/05/16 09:15:43;;;;;;;11.68;6.78;;;21.40;99.90;;;;;;5058449;28;20463;-56
2022/05/16 09:18:27;;;;;;;11.73;6.50;;;21.50;99.90;;;;;;5043879;28;20501;-56
2022/05/16 09:21:12;;;;;;;12.18;6.72;;;21.30;99.90;;;;;;5038592;28;20056;-56
2022/05/16 09:24:00;;;;;;;9.43;6.03;;;21.00;99.90;;;;;;5036698;28;20028;-56
2022/05/16 09:26:42;;;;;;;13.35;6.18;;;21.00;99.90;;;;;;5039713;28;20132;-55
2022/05/16 09:29:26;;;;;;;12.82;6.38;;;21.00;99.90;;;;;;5037506;28;20024;-55
2022/05/16 09:32:20;;;;;;;11.65;6.20;;;21.10;99.90;;;;;;5039915;28;20091;-56
2022/05/16 09:34:46;;;;;;;11.75;6.65;;;21.20;99.90;;;;;;5031625;28;20029;-56
2022/05/16 09:37:12;;;;;;;11.57;6.82;;;21.30;99.90;;;;;;5031908;28;20032;-56
2022/05/16 09:39:39;;;;;;;10.43;6.45;;;21.20;99.90;;;;;;5037549;28;20043;-58
2022/05/16 09:42:18;;;;;;;9.45;6.60;;;21.30;99.90;;;;;;5030926;28;20496;-56
2022/05/16 09:45:01;;;;;;;10.82;6.75;;;21.40;99.90;;;;;;5035035;28;20030;-56
2022/05/16 09:47:34;;;;;;;10.48;6.47;;;21.40;99.90;;;;;;5033550;28;20025;-56
2022/05/16 09:50:02;;;;;;;9.77;6.20;;;21.70;99.90;;;;;;5035755;28;20044;-56
2022/05/16 09:52:42;;;;;;;10.75;5.50;;;21.90;99.90;;;;;;5037259;28;21601;-56
2022/05/16 09:55:12;;;;;;;8.13;5.70;;;22.00;99.90;;;;;;5034184;28;20123;-57
2022/05/16 09:57:57;;;;;;;9.90;6.43;;;22.20;99.90;;;;;;5037251;28;20033;-56
2022/05/16 10:00:38;;;;;;;8.38;5.57;;;21.90;99.90;;;;;;5037874;28;20064;-56
2022/05/16 10:03:26;;;;;;;11.50;5.63;;;21.70;99.90;;;;;;5033362;28;20029;-56
2022/05/16 10:05:53;;;;;;;9.60;4.88;;;22.10;99.90;;;;;;5035452;28;20036;-56
2022/05/16 10:08:28;;;;;;;6.13;4.45;;;23.30;99.90;;;;;;5046668;28;20102;-56
2022/05/16 10:10:55;;;;;;;11.13;4.65;;;23.70;99.90;;;;;;5040882;28;20028;-57
2022/05/16 10:13:21;;;;;;;7.13;5.22;;;24.40;99.90;;;;;;5039760;28;20152;-55
2022/05/16 10:15:50;;;;;;;7.82;4.60;;;24.60;99.90;;;;;;5038081;28;20107;-54
2022/05/16 10:18:19;;;;;;;9.50;4.63;;;24.00;99.90;;;;;;5031780;28;20564;-54
2022/05/16 10:20:50;;;;;;;13.18;5.13;;;23.30;99.90;;;;;;5040605;28;20551;-56
2022/05/16 10:23:30;;;;;;;10.93;5.75;;;22.70;99.90;;;;;;5034808;28;20399;-56
2022/05/16 10:26:01;;;;;;;15.00;5.07;;;22.30;99.90;;;;;;5032643;28;20021;-57
2022/05/16 10:28:40;;;;;;;10.63;4.35;;;22.60;99.90;;;;;;5037406;28;20029;-57
2022/05/16 10:34:03;;;;;;;7.85;3.65;;;23.30;99.90;;;;;;5044169;28;20118;-57
2022/05/16 10:36:31;;;;;;;6.55;3.80;;;23.10;99.90;;;;;;5025439;28;20025;-57
2022/05/16 10:39:04;;;;;;;26.45;4.30;;;23.10;99.90;;;;;;5044435;28;20065;-55
2022/05/16 10:41:32;;;;;;;6.63;3.97;;;23.50;99.90;;;;;;5045915;28;20056;-56
2022/05/16 10:44:10;;;;;;;11.40;4.47;;;22.90;99.90;;;;;;5043623;28;20019;-56
2022/05/16 10:46:42;;;;;;;8.80;4.10;;;22.40;99.90;;;;;;5042035;28;20048;-55
2022/05/16 10:49:19;;;;;;;7.80;4.13;;;22.40;99.90;;;;;;5044135;28;20029;-56
2022/05/16 10:51:59;;;;;;;11.77;4.00;;;22.60;99.90;;;;;;5048053;28;20067;-56
2022/05/16 10:54:29;;;;;;;9.20;4.03;;;22.40;99.90;;;;;;5039111;28;20075;-55
2022/05/16 10:57:13;;;;;;;9.68;3.92;;;22.00;99.90;;;;;;5040365;28;20036;-57
2022/05/16 11:00:00;;;;;;;12.82;4.60;;;22.10;99.90;;;;;;5039397;28;20033;-56
2022/05/16 11:02:53;;;;;;;10.20;4.10;;;22.60;99.90;;;;;;5035793;28;20098;-56
2022/05/16 11:05:43;;;;;;;12.25;4.25;;;23.00;99.90;;;;;;5032566;28;20056;-58
2022/05/16 11:08:35;;;;;;;9.68;3.35;;;23.50;99.90;;;;;;5034483;28;20025;-56
2022/05/16 11:11:10;;;;;;;16.00;3.87;;;23.00;99.90;;;;;;5043567;28;20234;-55
2022/05/16 11:13:48;;;;;;;11.60;3.45;;;23.40;99.90;;;;;;5038987;28;20282;-56
2022/05/16 11:16:37;;;;;;;7.50;4.05;;;23.60;99.90;;;;;;5040269;28;20607;-56
2022/05/16 11:19:17;;;;;;;11.25;3.60;;;23.70;99.90;;;;;;5019063;28;20041;-56
2022/05/16 11:22:05;;;;;;;8.07;2.97;;;24.00;99.90;;;;;;5038087;28;20040;-56
2022/05/16 11:24:34;;;;;;;13.50;3.35;;;24.30;99.90;;;;;;5028451;28;20028;-56
2022/05/16 11:27:18;;;;;;;12.77;3.65;;;24.20;99.90;;;;;;5039130;28;20017;-55
2022/05/16 11:29:53;;;;;;;9.65;3.28;;;24.60;99.90;;;;;;5043767;28;20029;-55
2022/05/16 11:32:34;;;;;;;7.13;2.83;;;25.00;98.70;;;;;;5040131;28;20036;-56
2022/05/16 11:35:26;;;;;;;11.65;3.47;;;24.20;99.40;;;;;;5038246;28;21626;-58
2022/05/16 11:38:03;;;;;;;10.65;3.40;;;23.90;99.90;;;;;;5039424;28;20074;-55
2022/05/16 11:40:36;;;;;;;12.40;3.30;;;23.70;99.90;;;;;;5041551;28;20123;-56
2022/05/16 11:43:17;;;;;;;7.75;3.00;;;23.10;99.90;;;;;;5042088;28;20048;-59
2022/05/16 11:46:07;;;;;;;8.18;3.25;;;22.90;99.90;;;;;;5042861;28;20028;-58
2022/05/16 11:48:36;;;;;;;13.50;3.50;;;23.10;99.90;;;;;;5033660;28;21387;-61
2022/05/16 11:51:30;;;;;;;8.20;3.05;;;23.20;99.90;;;;;;5036029;28;20094;-57
2022/05/16 11:54:02;;;;;;;10.65;3.22;;;23.30;99.90;;;;;;5031262;28;20025;-57
2022/05/16 12:02:17;;;;;;;13.20;2.97;;;22.60;99.90;;;;;;5035150;28;20122;-57
2022/05/16 12:04:47;;;;;;;7.75;2.65;;;22.20;99.90;;;;;;5039915;28;20086;-57
2022/05/16 12:07:30;;;;;;;8.38;2.05;;;22.50;99.90;;;;;;5035375;28;20496;-58
2022/05/16 12:09:56;;;;;;;7.78;2.53;;;22.70;99.90;;;;;;5022347;28;20097;-58
2022/05/16 12:12:43;;;;;;;8.48;2.33;;;22.70;99.90;;;;;;5041242;28;20112;-58
2022/05/16 12:15:24;;;;;;;14.20;2.65;;;22.40;99.90;;;;;;5040129;28;20025;-58
2022/05/16 12:17:52;;;;;;;9.52;2.40;;;22.30;99.90;;;;;;5036345;28;20082;-58
2022/05/16 12:20:45;;;;;;;8.82;2.58;;;22.50;99.90;;;;;;5022475;28;20649;-58
2022/05/16 12:23:12;;;;;;;;;;;22.80;99.90;;;;;;5012215;28;20021;-57
2022/05/16 12:25:38;;;;;;;7.20;2.35;;;22.50;99.90;;;;;;5037728;28;20277;-57
2022/05/16 12:28:13;;;;;;;6.63;2.35;;;22.60;99.90;;;;;;5034833;28;20021;-58
2022/05/16 12:30:59;;;;;;;6.03;2.15;;;22.30;99.90;;;;;;5038930;28;20037;-58
2022/05/16 12:33:49;;;;;;;8.68;2.38;;;22.50;99.90;;;;;;5034748;28;20800;-58
2022/05/16 12:36:20;;;;;;;4.47;1.98;;;22.60;99.90;;;;;;5034441;28;20036;-58
2022/05/16 12:38:57;;;;;;;5.70;1.90;;;22.50;99.90;;;;;;5023049;28;20029;-57
2022/05/16 12:41:51;;;;;;;7.20;2.00;;;22.60;99.90;;;;;;5018814;28;20036;-58
2022/05/16 12:44:42;;;;;;;8.30;2.28;;;22.70;99.90;;;;;;5037438;28;20075;-58
2022/05/16 12:47:26;;;;;;;6.53;1.73;;;22.70;99.90;;;;;;5034516;28;20135;-58
2022/05/16 12:50:23;;;;;;;6.00;1.73;;;23.10;99.90;;;;;;5039901;28;20623;-58
2022/05/16 12:53:41;;;;;;;5.95;1.98;;;23.50;99.70;;;;;;5047152;28;20068;-58
2022/05/16 12:56:23;;;;;;;4.72;1.73;;;23.10;99.90;;;;;;5004097;28;20140;-58
2022/05/16 12:58:48;;;;;;;5.75;1.80;;;22.90;99.90;;;;;;5038690;28;20025;-58
2022/05/16 13:01:36;;;;;;;7.15;1.73;;;22.90;99.90;;;;;;5033973;28;20025;-59
2022/05/16 13:04:29;;;;;;;6.03;1.60;;;22.90;99.40;;;;;;5042856;28;20060;-59
2022/05/16 13:07:04;;;;;;;9.65;1.75;;;22.70;99.70;;;;;;5041952;28;20524;-59
2022/05/16 13:09:36;;;;;;;5.75;1.70;;;23.00;99.60;;;;;;5040163;28;20067;-59
2022/05/16 13:12:28;;;;;;;3.03;1.33;;;23.60;98.70;;;;;;5041512;28;20041;-59
2022/05/16 13:15:15;;;;;;;6.43;1.90;;;24.10;97.90;;;;;;5036451;28;20055;-59
2022/05/16 13:17:49;;;;;;;7.10;1.75;;;23.90;97.80;;;;;;5038936;28;20025;-59
2022/05/16 13:20:20;;;;;;;4.68;1.48;;;23.70;98.20;;;;;;5037679;28;20893;-59
2022/05/16 13:22:50;;;;;;;8.10;1.87;;;23.80;98.20;;;;;;5042591;28;20528;-59
2022/05/16 13:25:19;;;;;;;4.70;1.70;;;23.80;98.30;;;;;;5039851;28;20100;-59
2022/05/16 13:30:41;;;;;;;6.13;1.95;;;23.20;98.80;;;;;;5049311;28;20082;-59
2022/05/16 13:33:26;;;;;;;5.03;1.52;;;23.40;98.10;;;;;;5043592;28;20033;-59
2022/05/16 13:35:51;;;;;;;6.32;1.70;;;23.60;98.80;;;;;;5044895;28;20485;-59
2022/05/16 13:38:17;;;;;;;7.68;1.98;;;23.20;98.90;;;;;;5049976;28;20107;-59
2022/05/16 13:40:45;;;;;;;6.78;1.70;;;23.00;99.50;;;;;;5044649;28;20650;-59
2022/05/16 13:43:24;;;;;;;5.65;1.70;;;23.10;99.70;;;;;;5042310;28;21517;-59
2022/05/16 13:46:04;;;;;;;6.57;1.90;;;23.20;99.90;;;;;;5048789;28;20029;-59
2022/05/16 13:48:31;;;;;;;5.22;1.95;;;23.20;99.60;;;;;;5045000;28;20469;-59
2022/05/16 13:50:59;;;;;;;5.50;1.98;;;23.10;99.90;;;;;;5046915;28;20036;-59
2022/05/16 13:53:26;;;;;;;4.45;1.75;;;23.10;99.90;;;;;;5045479;28;20037;-59